createdAt,value
2023-02-26T00:00:07.720Z,13.28
2023-02-26T00:00:19.740Z,13.27
2023-02-26T00:00:30.747Z,13.27
2023-02-26T00:00:41.749Z,13.28
2023-02-26T00:00:52.745Z,13.28
2023-02-26T00:01:03.729Z,13.28
2023-02-26T00:01:14.725Z,13.27
2023-02-26T00:01:26.740Z,13.28
2023-02-26T00:01:37.739Z,13.27
2023-02-26T00:01:48.782Z,13.29
2023-02-26T00:02:00.768Z,13.28
2023-02-26T00:02:11.772Z,13.28
2023-02-26T00:02:22.819Z,13.28
2023-02-26T00:02:34.782Z,13.28
2023-02-26T00:02:45.739Z,13.28
2023-02-26T00:02:57.788Z,13.28
2023-02-26T00:03:08.795Z,13.27
2023-02-26T00:03:20.834Z,13.28
2023-02-26T00:03:32.846Z,13.28
2023-02-26T00:03:44.718Z,13.28
2023-02-26T00:03:55.733Z,13.28
2023-02-26T00:04:06.716Z,13.29
2023-02-26T00:04:17.790Z,13.28
2023-02-26T00:04:29.752Z,13.29
2023-02-26T00:04:40.749Z,13.28
2023-02-26T00:04:52.737Z,13.28
2023-02-26T00:05:03.744Z,13.27
2023-02-26T00:05:14.738Z,13.28
2023-02-26T00:05:25.728Z,13.28
2023-02-26T00:05:37.718Z,13.28
2023-02-26T00:05:48.737Z,13.28
2023-02-26T00:05:59.726Z,13.27
2023-02-26T00:06:10.715Z,13.28
2023-02-26T00:06:21.720Z,13.28
2023-02-26T00:06:32.791Z,13.28
2023-02-26T00:06:44.739Z,13.28
2023-02-26T00:06:58.332Z,13.27
2023-02-26T00:07:07.758Z,13.28
2023-02-26T00:07:18.767Z,13.29
2023-02-26T00:07:29.755Z,13.28
2023-02-26T00:07:40.752Z,13.28
2023-02-26T00:07:51.706Z,13.29
2023-02-26T00:08:02.736Z,13.29
2023-02-26T00:08:13.749Z,13.28
2023-02-26T00:08:24.743Z,13.28
2023-02-26T00:08:36.765Z,13.28
2023-02-26T00:08:47.769Z,13.28
2023-02-26T00:08:59.738Z,13.27
2023-02-26T00:09:11.735Z,13.32
2023-02-26T00:09:22.725Z,13.28
2023-02-26T00:09:33.761Z,13.28
2023-02-26T00:09:44.749Z,13.29
2023-02-26T00:09:55.752Z,13.27
2023-02-26T00:10:06.763Z,13.28
2023-02-26T00:10:18.757Z,13.28
2023-02-26T00:10:29.781Z,13.28
2023-02-26T00:10:41.733Z,13.28
2023-02-26T00:10:52.746Z,13.27
2023-02-26T00:11:04.730Z,13.28
2023-02-26T00:11:16.751Z,13.28
2023-02-26T00:11:27.736Z,13.25
2023-02-26T00:11:38.719Z,13.28
2023-02-26T00:11:50.740Z,13.27
2023-02-26T00:12:01.760Z,13.25
2023-02-26T00:12:12.768Z,13.27
2023-02-26T00:12:24.754Z,13.27
2023-02-26T00:12:35.761Z,13.27
2023-02-26T00:12:46.743Z,13.27
2023-02-26T00:12:57.738Z,13.25
2023-02-26T00:13:09.728Z,13.28
2023-02-26T00:13:21.741Z,13.25
2023-02-26T00:13:32.758Z,13.25
2023-02-26T00:13:44.731Z,13.24
2023-02-26T00:13:55.726Z,13.25
2023-02-26T00:14:06.781Z,13.24
2023-02-26T00:14:18.732Z,13.25
2023-02-26T00:14:29.763Z,13.25
2023-02-26T00:14:40.753Z,13.25
2023-02-26T00:14:51.760Z,13.25
2023-02-26T00:15:03.768Z,13.25
2023-02-26T00:15:15.762Z,13.25
2023-02-26T00:15:26.765Z,13.25
2023-02-26T00:15:37.716Z,13.25
2023-02-26T00:15:48.726Z,13.25
2023-02-26T00:15:59.730Z,13.25
2023-02-26T00:16:10.737Z,13.25
2023-02-26T00:16:22.785Z,13.24
2023-02-26T00:16:33.824Z,13.22
2023-02-26T00:16:44.757Z,13.25
2023-02-26T00:16:55.779Z,13.24
2023-02-26T00:17:07.790Z,13.24
2023-02-26T00:17:19.787Z,13.24
2023-02-26T00:17:31.755Z,13.25
2023-02-26T00:17:43.770Z,13.24
2023-02-26T00:17:56.936Z,13.24
2023-02-26T00:18:07.735Z,13.25
2023-02-26T00:18:18.729Z,13.24
2023-02-26T00:18:29.757Z,13.24
2023-02-26T00:18:40.748Z,13.22
2023-02-26T00:18:51.752Z,13.24
2023-02-26T00:19:03.727Z,13.22
2023-02-26T00:19:15.744Z,13.24
2023-02-26T00:19:26.748Z,13.22
2023-02-26T00:19:37.759Z,13.24
2023-02-26T00:19:48.742Z,13.22
2023-02-26T00:19:59.759Z,13.24
2023-02-26T00:20:11.717Z,13.24
2023-02-26T00:20:22.725Z,13.22
2023-02-26T00:20:33.730Z,13.24
2023-02-26T00:20:44.721Z,13.21
2023-02-26T00:20:55.730Z,13.22
2023-02-26T00:21:06.717Z,13.24
2023-02-26T00:21:17.730Z,13.24
2023-02-26T00:21:28.769Z,13.22
2023-02-26T00:21:40.743Z,13.24
2023-02-26T00:21:51.761Z,13.24
2023-02-26T00:22:02.754Z,13.22
2023-02-26T00:22:13.756Z,13.24
2023-02-26T00:22:25.725Z,13.22
2023-02-26T00:22:36.717Z,13.22
2023-02-26T00:22:47.726Z,13.22
2023-02-26T00:22:58.710Z,13.24
2023-02-26T00:23:09.711Z,13.21
2023-02-26T00:23:20.798Z,13.24
2023-02-26T00:23:32.813Z,13.24
2023-02-26T00:23:44.762Z,13.22
2023-02-26T00:23:55.780Z,13.24
2023-02-26T00:24:07.742Z,13.24
2023-02-26T00:24:19.729Z,13.22
2023-02-26T00:24:30.761Z,13.24
2023-02-26T00:24:41.736Z,13.24
2023-02-26T00:24:52.733Z,13.24
2023-02-26T00:25:03.754Z,13.22
2023-02-26T00:25:14.742Z,13.24
2023-02-26T00:25:25.751Z,13.22
2023-02-26T00:25:36.746Z,13.24
2023-02-26T00:25:47.754Z,13.25
2023-02-26T00:25:58.744Z,13.22
2023-02-26T00:26:09.729Z,13.22
2023-02-26T00:26:20.716Z,13.22
2023-02-26T00:26:32.154Z,13.22
2023-02-26T00:26:42.741Z,13.25
2023-02-26T00:26:53.731Z,13.24
2023-02-26T00:27:04.732Z,13.24
2023-02-26T00:27:15.726Z,13.24
2023-02-26T00:27:26.719Z,13.24
2023-02-26T00:27:37.729Z,13.22
2023-02-26T00:27:48.773Z,13.22
2023-02-26T00:27:59.753Z,13.22
2023-02-26T00:28:10.755Z,13.22
2023-02-26T00:28:21.742Z,13.24
2023-02-26T00:28:32.735Z,13.22
2023-02-26T00:28:43.732Z,13.24
2023-02-26T00:28:54.747Z,13.24
2023-02-26T00:29:05.753Z,13.22
2023-02-26T00:29:16.750Z,13.24
2023-02-26T00:29:27.745Z,13.24
2023-02-26T00:29:38.750Z,13.22
2023-02-26T00:29:49.763Z,13.25
2023-02-26T00:30:01.734Z,13.25
2023-02-26T00:30:12.738Z,13.24
2023-02-26T00:30:23.741Z,13.24
2023-02-26T00:30:34.781Z,13.24
2023-02-26T00:30:46.785Z,13.22
2023-02-26T00:30:58.754Z,13.24
2023-02-26T00:31:10.883Z,13.22
2023-02-26T00:31:21.868Z,13.24
2023-02-26T00:31:33.749Z,13.24
2023-02-26T00:31:44.867Z,13.22
2023-02-26T00:31:55.795Z,13.22
2023-02-26T00:32:06.811Z,13.22
2023-02-26T00:32:17.847Z,13.22
2023-02-26T00:32:30.130Z,13.24
2023-02-26T00:32:40.782Z,13.22
2023-02-26T00:32:52.751Z,13.22
2023-02-26T00:33:03.731Z,13.22
2023-02-26T00:33:14.729Z,13.22
2023-02-26T00:33:25.712Z,13.24
2023-02-26T00:33:36.737Z,13.22
2023-02-26T00:33:47.723Z,13.22
2023-02-26T00:33:58.744Z,13.24
2023-02-26T00:34:10.729Z,13.24
2023-02-26T00:34:21.717Z,13.22
2023-02-26T00:34:32.718Z,13.24
2023-02-26T00:34:43.711Z,13.24
2023-02-26T00:34:54.716Z,13.22
2023-02-26T00:35:05.808Z,13.22
2023-02-26T00:35:17.760Z,13.21
2023-02-26T00:35:28.739Z,13.24
2023-02-26T00:35:39.729Z,13.24
2023-02-26T00:35:50.736Z,13.24
2023-02-26T00:36:02.734Z,13.21
2023-02-26T00:36:13.732Z,13.22
2023-02-26T00:36:25.419Z,13.24
2023-02-26T00:36:35.739Z,13.24
2023-02-26T00:36:46.723Z,13.22
2023-02-26T00:36:57.696Z,13.22
2023-02-26T00:37:08.710Z,13.22
2023-02-26T00:37:19.709Z,13.22
2023-02-26T00:37:30.797Z,13.21
2023-02-26T00:37:42.775Z,13.24
2023-02-26T00:37:54.742Z,13.22
2023-02-26T00:38:05.735Z,13.24
2023-02-26T00:38:16.733Z,13.24
2023-02-26T00:38:27.761Z,13.21
2023-02-26T00:38:38.764Z,13.22
2023-02-26T00:38:49.753Z,13.22
2023-02-26T00:39:00.737Z,13.22
2023-02-26T00:39:11.727Z,13.24
2023-02-26T00:39:22.716Z,13.22
2023-02-26T00:39:33.712Z,13.24
2023-02-26T00:39:44.730Z,13.24
2023-02-26T00:39:55.717Z,13.24
2023-02-26T00:40:06.787Z,13.24
2023-02-26T00:40:18.761Z,13.21
2023-02-26T00:40:29.745Z,13.24
2023-02-26T00:40:40.744Z,13.24
2023-02-26T00:40:51.738Z,13.22
2023-02-26T00:41:02.735Z,13.24
2023-02-26T00:41:13.743Z,13.25
2023-02-26T00:41:24.784Z,13.22
2023-02-26T00:41:36.802Z,13.24
2023-02-26T00:41:47.735Z,13.24
2023-02-26T00:41:58.757Z,13.24
2023-02-26T00:42:09.759Z,13.25
2023-02-26T00:42:20.755Z,13.25
2023-02-26T00:42:31.743Z,13.24
2023-02-26T00:42:43.764Z,13.24
2023-02-26T00:42:54.750Z,13.25
2023-02-26T00:43:05.739Z,13.25
2023-02-26T00:43:16.722Z,13.25
2023-02-26T00:43:27.707Z,13.25
2023-02-26T00:43:38.712Z,13.25
2023-02-26T00:43:49.704Z,13.25
2023-02-26T00:44:00.709Z,13.24
2023-02-26T00:44:11.744Z,13.25
2023-02-26T00:44:22.736Z,13.27
2023-02-26T00:44:33.727Z,13.25
2023-02-26T00:44:45.719Z,13.25
2023-02-26T00:44:56.713Z,13.25
2023-02-26T00:45:07.708Z,13.25
2023-02-26T00:45:18.798Z,13.24
2023-02-26T00:45:30.768Z,13.25
2023-02-26T00:45:42.776Z,13.24
2023-02-26T00:45:54.791Z,13.25
2023-02-26T00:46:06.801Z,13.25
2023-02-26T00:46:18.861Z,13.24
2023-02-26T00:46:29.809Z,13.25
2023-02-26T00:46:40.724Z,13.25
2023-02-26T00:46:51.705Z,13.25
2023-02-26T00:47:02.694Z,13.25
2023-02-26T00:47:13.783Z,13.27
2023-02-26T00:47:25.775Z,13.25
2023-02-26T00:47:37.732Z,13.25
2023-02-26T00:47:48.734Z,13.25
2023-02-26T00:48:00.731Z,13.24
2023-02-26T00:48:11.728Z,13.25
2023-02-26T00:48:22.708Z,13.25
2023-02-26T00:48:33.748Z,13.25
2023-02-26T00:48:44.767Z,13.25
2023-02-26T00:48:56.745Z,13.25
2023-02-26T00:49:07.762Z,13.25
2023-02-26T00:49:18.756Z,13.25
2023-02-26T00:49:29.757Z,13.27
2023-02-26T00:49:41.749Z,13.25
2023-02-26T00:49:53.758Z,13.25
2023-02-26T00:50:04.768Z,13.25
2023-02-26T00:50:15.767Z,13.27
2023-02-26T00:50:27.734Z,13.27
2023-02-26T00:50:38.748Z,13.27
2023-02-26T00:50:50.745Z,13.28
2023-02-26T00:51:02.731Z,13.27
2023-02-26T00:51:13.738Z,13.27
2023-02-26T00:51:25.730Z,13.27
2023-02-26T00:51:36.733Z,13.27
2023-02-26T00:51:47.731Z,13.27
2023-02-26T00:51:58.718Z,13.27
2023-02-26T00:52:09.740Z,13.25
2023-02-26T00:52:21.741Z,13.28
2023-02-26T00:52:32.733Z,13.28
2023-02-26T00:52:43.742Z,13.28
2023-02-26T00:52:54.735Z,13.27
2023-02-26T00:53:05.719Z,13.28
2023-02-26T00:53:16.761Z,13.28
2023-02-26T00:53:27.752Z,13.27
2023-02-26T00:53:38.735Z,13.27
2023-02-26T00:53:49.726Z,13.27
2023-02-26T00:54:00.745Z,13.27
2023-02-26T00:54:11.745Z,13.27
2023-02-26T00:54:22.792Z,13.28
2023-02-26T00:54:34.743Z,13.27
2023-02-26T00:54:46.736Z,13.27
2023-02-26T00:54:57.719Z,13.27
2023-02-26T00:55:08.713Z,13.27
2023-02-26T00:55:19.723Z,13.25
2023-02-26T00:55:30.714Z,13.28
2023-02-26T00:55:41.712Z,13.27
2023-02-26T00:55:52.791Z,13.28
2023-02-26T00:56:04.772Z,13.25
2023-02-26T00:56:16.744Z,13.28
2023-02-26T00:56:27.738Z,13.27
2023-02-26T00:56:38.730Z,13.28
2023-02-26T00:56:49.759Z,13.28
2023-02-26T00:57:00.776Z,13.28
2023-02-26T00:57:12.731Z,13.27
2023-02-26T00:57:24.726Z,13.28
2023-02-26T00:57:35.739Z,13.28
2023-02-26T00:57:46.740Z,13.27
2023-02-26T00:57:57.735Z,13.28
2023-02-26T00:58:08.713Z,13.27
2023-02-26T00:58:19.718Z,13.27
2023-02-26T00:58:30.712Z,13.28
2023-02-26T00:58:41.800Z,13.27
2023-02-26T00:58:53.768Z,13.25
2023-02-26T00:59:05.756Z,13.28
2023-02-26T00:59:16.731Z,13.28
2023-02-26T00:59:27.735Z,13.27
2023-02-26T00:59:38.743Z,13.27
2023-02-26T00:59:49.732Z,13.27
2023-02-26T01:00:00.714Z,13.27
2023-02-26T01:00:11.805Z,13.25
2023-02-26T01:00:23.768Z,13.27
2023-02-26T01:00:35.742Z,13.25
2023-02-26T01:00:46.734Z,13.25
2023-02-26T01:00:57.743Z,13.27
2023-02-26T01:01:08.790Z,13.25
2023-02-26T01:01:19.707Z,13.25
2023-02-26T01:01:30.735Z,13.25
2023-02-26T01:01:41.783Z,13.25
2023-02-26T01:01:52.800Z,13.24
2023-02-26T01:02:04.749Z,13.25
2023-02-26T01:02:15.752Z,13.25
2023-02-26T01:02:26.745Z,13.24
2023-02-26T01:02:38.739Z,13.24
2023-02-26T01:02:49.724Z,13.25
2023-02-26T01:03:00.707Z,13.24
2023-02-26T01:03:11.735Z,13.24
2023-02-26T01:03:22.737Z,13.24
2023-02-26T01:03:33.741Z,13.24
2023-02-26T01:03:44.807Z,13.24
2023-02-26T01:03:55.760Z,13.22
2023-02-26T01:04:06.799Z,13.22
2023-02-26T01:04:17.716Z,13.22
2023-02-26T01:04:28.716Z,13.24
2023-02-26T01:04:39.698Z,13.21
2023-02-26T01:04:50.707Z,13.24
2023-02-26T01:05:01.716Z,13.24
2023-02-26T01:05:12.712Z,13.22
2023-02-26T01:05:23.734Z,13.22
2023-02-26T01:05:34.724Z,13.24
2023-02-26T01:05:45.753Z,13.22
2023-02-26T01:05:56.740Z,13.24
2023-02-26T01:06:08.736Z,13.24
2023-02-26T01:06:19.731Z,13.24
2023-02-26T01:06:30.708Z,13.22
2023-02-26T01:06:41.720Z,13.22
2023-02-26T01:06:52.723Z,13.24
2023-02-26T01:07:03.719Z,13.22
2023-02-26T01:07:14.721Z,13.22
2023-02-26T01:07:25.727Z,13.24
2023-02-26T01:07:36.726Z,13.22
2023-02-26T01:07:47.712Z,13.24
2023-02-26T01:07:58.765Z,13.22
2023-02-26T01:08:09.751Z,13.25
2023-02-26T01:08:20.760Z,13.22
2023-02-26T01:08:31.756Z,13.25
2023-02-26T01:08:43.733Z,13.22
2023-02-26T01:08:54.726Z,13.22
2023-02-26T01:09:05.733Z,13.24
2023-02-26T01:09:16.742Z,13.24
2023-02-26T01:09:28.733Z,13.22
2023-02-26T01:09:39.721Z,13.24
2023-02-26T01:09:50.729Z,13.22
2023-02-26T01:10:01.710Z,13.24
2023-02-26T01:10:12.751Z,13.24
2023-02-26T01:10:23.737Z,13.22
2023-02-26T01:10:35.743Z,13.24
2023-02-26T01:10:46.730Z,13.22
2023-02-26T01:10:57.739Z,13.24
2023-02-26T01:11:08.716Z,13.22
2023-02-26T01:11:19.722Z,13.24
2023-02-26T01:11:30.719Z,13.25
2023-02-26T01:11:41.718Z,13.24
2023-02-26T01:11:52.700Z,13.24
2023-02-26T01:12:03.793Z,13.24
2023-02-26T01:12:15.793Z,13.24
2023-02-26T01:12:27.737Z,13.24
2023-02-26T01:12:38.763Z,13.24
2023-02-26T01:12:50.742Z,13.25
2023-02-26T01:13:01.735Z,13.24
2023-02-26T01:13:12.727Z,13.24
2023-02-26T01:13:23.720Z,13.24
2023-02-26T01:13:34.753Z,13.25
2023-02-26T01:13:45.737Z,13.24
2023-02-26T01:13:56.736Z,13.25
2023-02-26T01:14:07.727Z,13.24
2023-02-26T01:14:18.747Z,13.25
2023-02-26T01:14:30.740Z,13.25
2023-02-26T01:14:41.731Z,13.25
2023-02-26T01:14:52.729Z,13.24
2023-02-26T01:15:03.710Z,13.25
2023-02-26T01:15:14.754Z,13.24
2023-02-26T01:15:26.745Z,13.24
2023-02-26T01:15:37.801Z,13.25
2023-02-26T01:15:49.778Z,13.24
2023-02-26T01:16:01.880Z,13.25
2023-02-26T01:16:13.761Z,13.25
2023-02-26T01:16:25.288Z,13.25
2023-02-26T01:16:35.718Z,13.27
2023-02-26T01:16:46.704Z,13.27
2023-02-26T01:16:57.797Z,13.25
2023-02-26T01:17:09.791Z,13.27
2023-02-26T01:17:21.785Z,13.25
2023-02-26T01:17:33.768Z,13.27
2023-02-26T01:17:45.760Z,13.27
2023-02-26T01:17:56.759Z,13.25
2023-02-26T01:18:09.902Z,13.25
2023-02-26T01:18:19.742Z,13.27
2023-02-26T01:18:30.760Z,13.27
2023-02-26T01:18:42.756Z,13.25
2023-02-26T01:18:53.788Z,13.27
2023-02-26T01:19:05.731Z,13.27
2023-02-26T01:19:17.726Z,13.27
2023-02-26T01:19:28.726Z,13.27
2023-02-26T01:19:39.765Z,13.25
2023-02-26T01:19:50.744Z,13.27
2023-02-26T01:20:01.749Z,13.25
2023-02-26T01:20:12.728Z,13.27
2023-02-26T01:20:23.733Z,13.27
2023-02-26T01:20:35.724Z,13.27
2023-02-26T01:20:46.726Z,13.28
2023-02-26T01:20:57.718Z,13.28
2023-02-26T01:21:08.711Z,13.29
2023-02-26T01:21:19.712Z,13.28
2023-02-26T01:21:30.738Z,13.28
2023-02-26T01:21:41.735Z,13.27
2023-02-26T01:21:52.717Z,13.27
2023-02-26T01:22:03.721Z,13.27
2023-02-26T01:22:14.724Z,13.28
2023-02-26T01:22:25.756Z,13.28
2023-02-26T01:22:36.748Z,13.27
2023-02-26T01:22:47.746Z,13.28
2023-02-26T01:22:58.729Z,13.28
2023-02-26T01:23:09.753Z,13.29
2023-02-26T01:23:20.743Z,13.28
2023-02-26T01:23:32.769Z,13.28
2023-02-26T01:23:44.754Z,13.28
2023-02-26T01:23:55.759Z,13.28
2023-02-26T01:24:07.749Z,13.28
2023-02-26T01:24:18.756Z,13.27
2023-02-26T01:24:29.800Z,13.27
2023-02-26T01:24:41.747Z,13.29
2023-02-26T01:24:52.745Z,13.28
2023-02-26T01:25:03.750Z,13.29
2023-02-26T01:25:15.749Z,13.29
2023-02-26T01:25:26.759Z,13.29
2023-02-26T01:25:38.759Z,13.28
2023-02-26T01:25:49.739Z,13.31
2023-02-26T01:26:01.736Z,13.29
2023-02-26T01:26:12.728Z,13.29
2023-02-26T01:26:24.334Z,13.29
2023-02-26T01:26:34.728Z,13.29
2023-02-26T01:26:45.715Z,13.29
2023-02-26T01:26:56.719Z,13.29
2023-02-26T01:27:07.728Z,13.29
2023-02-26T01:27:18.733Z,13.29
2023-02-26T01:27:29.715Z,13.28
2023-02-26T01:27:40.723Z,13.29
2023-02-26T01:27:51.697Z,13.28
2023-02-26T01:28:02.745Z,13.31
2023-02-26T01:28:13.737Z,13.29
2023-02-26T01:28:24.769Z,13.29
2023-02-26T01:28:35.752Z,13.29
2023-02-26T01:28:47.757Z,13.31
2023-02-26T01:28:58.741Z,13.29
2023-02-26T01:29:09.741Z,13.29
2023-02-26T01:29:20.728Z,13.28
2023-02-26T01:29:31.734Z,13.29
2023-02-26T01:29:42.730Z,13.29
2023-02-26T01:29:53.727Z,13.29
2023-02-26T01:30:04.721Z,13.29
2023-02-26T01:30:15.710Z,13.29
2023-02-26T01:30:26.703Z,13.29
2023-02-26T01:30:37.700Z,13.28
2023-02-26T01:30:48.900Z,13.29
2023-02-26T01:30:59.802Z,13.28
2023-02-26T01:31:10.787Z,13.29
2023-02-26T01:31:21.805Z,13.29
2023-02-26T01:31:32.829Z,13.29
2023-02-26T01:31:44.950Z,13.29
2023-02-26T01:31:55.850Z,13.29
2023-02-26T01:32:06.959Z,13.31
2023-02-26T01:32:17.782Z,13.29
2023-02-26T01:32:28.892Z,13.29
2023-02-26T01:32:39.758Z,13.29
2023-02-26T01:32:50.785Z,13.29
2023-02-26T01:33:02.803Z,13.29
2023-02-26T01:33:13.728Z,13.31
2023-02-26T01:33:24.737Z,13.29
2023-02-26T01:33:35.743Z,13.29
2023-02-26T01:33:47.738Z,13.29
2023-02-26T01:33:58.736Z,13.28
2023-02-26T01:34:09.748Z,13.31
2023-02-26T01:34:20.737Z,13.29
2023-02-26T01:34:31.724Z,13.29
2023-02-26T01:34:42.726Z,13.29
2023-02-26T01:34:53.723Z,13.28
2023-02-26T01:35:04.728Z,13.29
2023-02-26T01:35:15.758Z,13.29
2023-02-26T01:35:27.727Z,13.29
2023-02-26T01:35:38.727Z,13.29
2023-02-26T01:35:49.766Z,13.28
2023-02-26T01:36:01.742Z,13.29
2023-02-26T01:36:13.727Z,13.29
2023-02-26T01:36:25.096Z,13.29
2023-02-26T01:36:35.728Z,13.28
2023-02-26T01:36:46.718Z,13.31
2023-02-26T01:36:57.702Z,13.28
2023-02-26T01:37:08.706Z,13.28
2023-02-26T01:37:19.708Z,13.27
2023-02-26T01:37:30.791Z,13.27
2023-02-26T01:37:42.738Z,13.28
2023-02-26T01:37:53.747Z,13.28
2023-02-26T01:38:04.764Z,13.28
2023-02-26T01:38:15.753Z,13.27
2023-02-26T01:38:26.747Z,13.27
2023-02-26T01:38:37.746Z,13.27
2023-02-26T01:38:48.736Z,13.28
2023-02-26T01:38:59.754Z,13.27
2023-02-26T01:39:10.754Z,13.28
2023-02-26T01:39:21.763Z,13.28
2023-02-26T01:39:33.733Z,13.28
2023-02-26T01:39:45.733Z,13.28
2023-02-26T01:39:56.733Z,13.28
2023-02-26T01:40:07.723Z,13.28
2023-02-26T01:40:18.708Z,13.27
2023-02-26T01:40:29.794Z,13.27
2023-02-26T01:40:41.769Z,13.27
2023-02-26T01:40:52.750Z,13.27
2023-02-26T01:41:03.751Z,13.28
2023-02-26T01:41:15.748Z,13.27
2023-02-26T01:41:26.759Z,13.25
2023-02-26T01:41:38.787Z,13.27
2023-02-26T01:41:50.748Z,13.25
2023-02-26T01:42:02.737Z,13.25
2023-02-26T01:42:13.736Z,13.27
2023-02-26T01:42:24.726Z,13.27
2023-02-26T01:42:35.756Z,13.25
2023-02-26T01:42:46.756Z,13.28
2023-02-26T01:42:57.763Z,13.27
2023-02-26T01:43:09.744Z,13.27
2023-02-26T01:43:20.724Z,13.27
2023-02-26T01:43:31.739Z,13.25
2023-02-26T01:43:42.720Z,13.27
2023-02-26T01:43:53.812Z,13.27
2023-02-26T01:44:05.732Z,13.27
2023-02-26T01:44:16.783Z,13.24
2023-02-26T01:44:28.753Z,13.25
2023-02-26T01:44:39.744Z,13.27
2023-02-26T01:44:50.729Z,13.27
2023-02-26T01:45:02.740Z,13.27
2023-02-26T01:45:13.727Z,13.27
2023-02-26T01:45:24.738Z,13.27
2023-02-26T01:45:36.732Z,13.25
2023-02-26T01:45:47.737Z,13.27
2023-02-26T01:45:58.755Z,13.27
2023-02-26T01:46:09.854Z,13.27
2023-02-26T01:46:21.821Z,13.28
2023-02-26T01:46:34.114Z,13.27
2023-02-26T01:46:45.779Z,13.27
2023-02-26T01:46:57.819Z,13.27
2023-02-26T01:47:08.758Z,13.27
2023-02-26T01:47:19.742Z,13.27
2023-02-26T01:47:30.746Z,13.25
2023-02-26T01:47:41.734Z,13.28
2023-02-26T01:47:52.763Z,13.27
2023-02-26T01:48:03.753Z,13.27
2023-02-26T01:48:14.750Z,13.27
2023-02-26T01:48:25.751Z,13.25
2023-02-26T01:48:36.729Z,13.27
2023-02-26T01:48:47.733Z,13.27
2023-02-26T01:48:58.718Z,13.25
2023-02-26T01:49:09.723Z,13.27
2023-02-26T01:49:20.707Z,13.24
2023-02-26T01:49:31.718Z,13.25
2023-02-26T01:49:42.749Z,13.25
2023-02-26T01:49:53.762Z,13.27
2023-02-26T01:50:05.743Z,13.24
2023-02-26T01:50:16.728Z,13.25
2023-02-26T01:50:27.740Z,13.25
2023-02-26T01:50:38.745Z,13.25
2023-02-26T01:50:49.741Z,13.24
2023-02-26T01:51:01.739Z,13.25
2023-02-26T01:51:13.738Z,13.25
2023-02-26T01:51:24.745Z,13.24
2023-02-26T01:51:36.754Z,13.25
2023-02-26T01:51:48.751Z,13.25
2023-02-26T01:51:59.746Z,13.27
2023-02-26T01:52:11.744Z,13.24
2023-02-26T01:52:22.745Z,13.25
2023-02-26T01:52:33.725Z,13.24
2023-02-26T01:52:44.752Z,13.25
2023-02-26T01:52:55.749Z,13.24
2023-02-26T01:53:06.744Z,13.24
2023-02-26T01:53:17.748Z,13.25
2023-02-26T01:53:29.754Z,13.24
2023-02-26T01:53:41.730Z,13.24
2023-02-26T01:53:53.732Z,13.24
2023-02-26T01:54:04.729Z,13.22
2023-02-26T01:54:15.726Z,13.22
2023-02-26T01:54:26.731Z,13.21
2023-02-26T01:54:37.762Z,13.22
2023-02-26T01:54:48.764Z,13.22
2023-02-26T01:55:00.747Z,13.21
2023-02-26T01:55:12.733Z,13.21
2023-02-26T01:55:24.749Z,13.24
2023-02-26T01:55:35.748Z,13.22
2023-02-26T01:55:46.726Z,13.21
2023-02-26T01:55:57.731Z,13.21
2023-02-26T01:56:08.743Z,13.22
2023-02-26T01:56:19.758Z,13.21
2023-02-26T01:56:31.749Z,13.21
2023-02-26T01:56:42.759Z,13.21
2023-02-26T01:56:54.738Z,13.21
2023-02-26T01:57:05.749Z,13.21
2023-02-26T01:57:16.744Z,13.21
2023-02-26T01:57:27.731Z,13.21
2023-02-26T01:57:38.729Z,13.19
2023-02-26T01:57:49.712Z,13.19
2023-02-26T01:58:00.719Z,13.21
2023-02-26T01:58:11.717Z,13.19
2023-02-26T01:58:22.740Z,13.19
2023-02-26T01:58:33.749Z,13.19
2023-02-26T01:58:44.752Z,13.17
2023-02-26T01:58:55.757Z,13.21
2023-02-26T01:59:07.754Z,13.21
2023-02-26T01:59:18.757Z,13.19
2023-02-26T01:59:29.737Z,13.21
2023-02-26T01:59:40.738Z,13.21
2023-02-26T01:59:51.731Z,13.19
2023-02-26T02:00:02.732Z,13.21
2023-02-26T02:00:14.736Z,13.19
2023-02-26T02:00:25.747Z,13.21
2023-02-26T02:00:36.735Z,13.21
2023-02-26T02:00:47.738Z,13.21
2023-02-26T02:00:58.741Z,13.19
2023-02-26T02:01:09.726Z,13.21
2023-02-26T02:01:20.719Z,13.21
2023-02-26T02:01:31.730Z,13.19
2023-02-26T02:01:42.749Z,13.19
2023-02-26T02:01:53.749Z,13.19
2023-02-26T02:02:05.733Z,13.21
2023-02-26T02:02:16.790Z,13.19
2023-02-26T02:02:28.850Z,13.19
2023-02-26T02:02:40.912Z,13.19
2023-02-26T02:02:51.880Z,13.19
2023-02-26T02:03:03.858Z,13.19
2023-02-26T02:03:15.829Z,13.17
2023-02-26T02:03:27.912Z,13.19
2023-02-26T02:03:39.773Z,13.17
2023-02-26T02:03:50.718Z,13.19
2023-02-26T02:04:01.708Z,13.17
2023-02-26T02:04:12.713Z,13.19
2023-02-26T02:04:23.760Z,13.21
2023-02-26T02:04:35.734Z,13.19
2023-02-26T02:04:46.765Z,13.19
2023-02-26T02:04:58.741Z,13.19
2023-02-26T02:05:10.734Z,13.19
2023-02-26T02:05:21.733Z,13.19
2023-02-26T02:05:32.756Z,13.19
2023-02-26T02:05:43.758Z,13.19
2023-02-26T02:05:54.750Z,13.19
2023-02-26T02:06:05.758Z,13.19
2023-02-26T02:06:16.743Z,13.21
2023-02-26T02:06:28.015Z,13.21
2023-02-26T02:06:39.750Z,13.19
2023-02-26T02:06:50.759Z,13.19
2023-02-26T02:07:02.748Z,13.21
2023-02-26T02:07:13.753Z,13.19
2023-02-26T02:07:24.743Z,13.19
2023-02-26T02:07:35.750Z,13.19
2023-02-26T02:07:46.764Z,13.19
2023-02-26T02:07:58.735Z,13.19
2023-02-26T02:08:09.767Z,13.21
2023-02-26T02:08:20.777Z,13.19
2023-02-26T02:08:32.764Z,13.19
2023-02-26T02:08:43.755Z,13.21
2023-02-26T02:08:54.778Z,13.21
2023-02-26T02:09:05.769Z,13.21
2023-02-26T02:09:17.779Z,13.19
2023-02-26T02:09:28.765Z,13.19
2023-02-26T02:09:39.769Z,13.21
2023-02-26T02:09:50.762Z,13.21
2023-02-26T02:10:01.764Z,13.21
2023-02-26T02:10:12.765Z,13.21
2023-02-26T02:10:23.757Z,13.21
2023-02-26T02:10:34.777Z,13.21
2023-02-26T02:10:46.769Z,13.21
2023-02-26T02:10:57.753Z,13.22
2023-02-26T02:11:09.742Z,13.21
2023-02-26T02:11:20.738Z,13.22
2023-02-26T02:11:31.763Z,13.24
2023-02-26T02:11:42.744Z,13.22
2023-02-26T02:11:53.728Z,13.22
2023-02-26T02:12:05.733Z,13.22
2023-02-26T02:12:16.729Z,13.22
2023-02-26T02:12:27.736Z,13.22
2023-02-26T02:12:38.737Z,13.22
2023-02-26T02:12:49.749Z,13.24
2023-02-26T02:13:00.747Z,13.22
2023-02-26T02:13:12.732Z,13.21
2023-02-26T02:13:24.734Z,13.22
2023-02-26T02:13:35.744Z,13.24
2023-02-26T02:13:46.730Z,13.22
2023-02-26T02:13:57.749Z,13.24
2023-02-26T02:14:08.773Z,13.24
2023-02-26T02:14:20.750Z,13.24
2023-02-26T02:14:32.755Z,13.24
2023-02-26T02:14:43.749Z,13.24
2023-02-26T02:14:55.753Z,13.24
2023-02-26T02:15:07.739Z,13.24
2023-02-26T02:15:18.732Z,13.24
2023-02-26T02:15:29.740Z,13.24
2023-02-26T02:15:40.767Z,13.24
2023-02-26T02:15:51.748Z,13.24
2023-02-26T02:16:02.803Z,13.24
2023-02-26T02:16:13.789Z,13.24
2023-02-26T02:16:25.126Z,13.25
2023-02-26T02:16:35.822Z,13.22
2023-02-26T02:16:47.824Z,13.24
2023-02-26T02:16:58.722Z,13.24
2023-02-26T02:17:09.762Z,13.24
2023-02-26T02:17:20.770Z,13.25
2023-02-26T02:17:32.717Z,13.24
2023-02-26T02:17:43.744Z,13.24
2023-02-26T02:17:55.743Z,13.24
2023-02-26T02:18:06.738Z,13.24
2023-02-26T02:18:17.763Z,13.24
2023-02-26T02:18:28.758Z,13.22
2023-02-26T02:18:39.762Z,13.22
2023-02-26T02:18:50.768Z,13.24
2023-02-26T02:19:02.742Z,13.24
2023-02-26T02:19:13.744Z,13.24
2023-02-26T02:19:24.745Z,13.24
2023-02-26T02:19:35.742Z,13.24
2023-02-26T02:19:46.732Z,13.24
2023-02-26T02:19:57.721Z,13.24
2023-02-26T02:20:08.740Z,13.24
2023-02-26T02:20:19.732Z,13.24
2023-02-26T02:20:30.735Z,13.24
2023-02-26T02:20:41.751Z,13.24
2023-02-26T02:20:53.771Z,13.22
2023-02-26T02:21:05.726Z,13.24
2023-02-26T02:21:17.732Z,13.24
2023-02-26T02:21:28.738Z,13.25
2023-02-26T02:21:39.732Z,13.24
2023-02-26T02:21:50.752Z,13.22
2023-02-26T02:22:03.431Z,13.24
2023-02-26T02:22:12.737Z,13.22
2023-02-26T02:22:24.756Z,13.24
2023-02-26T02:22:35.765Z,13.24
2023-02-26T02:22:46.756Z,13.22
2023-02-26T02:22:57.761Z,13.24
2023-02-26T02:23:09.731Z,13.24
2023-02-26T02:23:20.708Z,13.25
2023-02-26T02:23:31.710Z,13.25
2023-02-26T02:23:42.708Z,13.25
2023-02-26T02:23:53.743Z,13.25
2023-02-26T02:24:04.749Z,13.24
2023-02-26T02:24:15.744Z,13.22
2023-02-26T02:24:26.743Z,13.25
2023-02-26T02:24:37.716Z,13.25
2023-02-26T02:24:48.737Z,13.24